createdAt,value
2019-01-03T00:00:25.182Z,-0.10
2019-01-03T00:03:23.519Z,-0.20
2019-01-03T00:06:12.270Z,-0.20
2019-01-03T00:08:57.820Z,-0.20
2019-01-03T00:11:59.254Z,-0.20
2019-01-03T00:14:48.452Z,-0.20
2019-01-03T00:17:37.603Z,-0.30
2019-01-03T00:20:20.606Z,-0.30
2019-01-03T00:23:09.928Z,-0.30
2019-01-03T00:26:14.053Z,-0.40
2019-01-03T00:29:01.674Z,-0.40
2019-01-03T00:32:02.952Z,-0.40
2019-01-03T00:34:50.817Z,-0.40
2019-01-03T00:37:49.140Z,-0.40
2019-01-03T00:40:46.471Z,-0.40
2019-01-03T00:43:38.322Z,-0.40
2019-01-03T00:46:27.496Z,-0.50
2019-01-03T00:49:16.803Z,-0.50
2019-01-03T00:52:04.687Z,-0.50
2019-01-03T00:54:59.886Z,-0.50
2019-01-03T00:58:01.395Z,-0.60
2019-01-03T01:00:49.252Z,-0.60
2019-01-03T01:03:44.281Z,-0.70
2019-01-03T01:06:33.522Z,-0.70
2019-01-03T01:09:21.649Z,-0.70
2019-01-03T01:12:09.019Z,-0.80
2019-01-03T01:14:55.737Z,-0.80
2019-01-03T01:17:41.993Z,-0.80
2019-01-03T01:20:30.277Z,-0.80
2019-01-03T01:23:18.561Z,-0.90
2019-01-03T01:26:19.722Z,-0.90
2019-01-03T01:29:20.790Z,-0.80
2019-01-03T01:32:19.023Z,-0.90
2019-01-03T01:35:07.049Z,-0.80
2019-01-03T01:38:05.717Z,-0.90
2019-01-03T01:40:55.701Z,-0.90
2019-01-03T01:43:47.890Z,-0.90
2019-01-03T01:46:40.065Z,-0.90
2019-01-03T01:49:36.566Z,-0.90
2019-01-03T01:52:25.743Z,-1.00
2019-01-03T01:55:14.982Z,-1.00
2019-01-03T01:58:02.969Z,-1.00
2019-01-03T02:00:58.218Z,-1.00
2019-01-03T02:03:56.238Z,-1.00
2019-01-03T02:06:52.153Z,-1.00
2019-01-03T02:09:56.186Z,-1.00
2019-01-03T02:12:47.257Z,-1.00
2019-01-03T02:15:40.989Z,-1.00
2019-01-03T02:18:28.747Z,-1.10
2019-01-03T02:21:18.418Z,-1.10
2019-01-03T02:24:06.538Z,-1.10
2019-01-03T02:26:54.777Z,-1.10
2019-01-03T02:29:43.810Z,-1.20
2019-01-03T02:32:35.994Z,-1.10
2019-01-03T02:35:28.262Z,-1.20
2019-01-03T02:38:16.274Z,-1.20
2019-01-03T02:41:08.062Z,-1.20
2019-01-03T02:44:15.532Z,-1.30
2019-01-03T02:47:04.677Z,-1.30
2019-01-03T02:49:52.584Z,-1.30
2019-01-03T02:52:53.820Z,-1.40
2019-01-03T02:55:48.545Z,-1.40
2019-01-03T02:58:37.766Z,-1.50
2019-01-03T03:01:25.064Z,-1.50
2019-01-03T03:04:17.192Z,-1.50
2019-01-03T03:07:24.662Z,-1.50
2019-01-03T03:10:14.421Z,-1.50
2019-01-03T03:12:54.998Z,-1.50
2019-01-03T03:15:44.193Z,-1.60
2019-01-03T03:18:33.374Z,-1.60
2019-01-03T03:21:21.374Z,-1.60
2019-01-03T03:24:10.575Z,-1.70
2019-01-03T03:26:58.216Z,-1.70
2019-01-03T03:29:50.622Z,-1.70
2019-01-03T03:32:38.445Z,-1.60
2019-01-03T03:35:31.924Z,-1.70
2019-01-03T03:38:19.806Z,-1.70
2019-01-03T03:41:24.253Z,-1.70
2019-01-03T03:44:22.269Z,-1.60
2019-01-03T03:47:17.302Z,-1.70
2019-01-03T03:50:04.878Z,-1.70
2019-01-03T03:53:02.754Z,-1.70
2019-01-03T03:55:50.622Z,-1.70
2019-01-03T03:58:42.774Z,-1.70
2019-01-03T04:01:50.117Z,-1.70
2019-01-03T04:04:38.002Z,-1.70
2019-01-03T04:07:25.667Z,-1.70
2019-01-03T04:10:09.761Z,-1.70
2019-01-03T04:13:11.249Z,-1.70
2019-01-03T04:16:06.523Z,-1.70
2019-01-03T04:18:55.772Z,-1.80
2019-01-03T04:21:44.054Z,-1.70
2019-01-03T04:24:51.683Z,-1.70
2019-01-03T04:27:40.898Z,-1.70
2019-01-03T04:30:35.881Z,-1.80
2019-01-03T04:33:23.926Z,-1.80
2019-01-03T04:36:04.381Z,-1.80
2019-01-03T04:38:56.610Z,-1.80
2019-01-03T04:41:48.889Z,-1.80
2019-01-03T04:44:47.310Z,-1.80
2019-01-03T04:47:31.775Z,-1.80
2019-01-03T04:50:26.735Z,-1.80
2019-01-03T04:53:23.481Z,-1.80
2019-01-03T04:56:31.206Z,-1.80
2019-01-03T04:59:15.338Z,-1.80
2019-01-03T05:02:24.154Z,-1.90
2019-01-03T05:05:18.006Z,-1.80
2019-01-03T05:08:05.680Z,-1.90
2019-01-03T05:10:53.392Z,-1.90
2019-01-03T05:13:41.141Z,-1.90
2019-01-03T05:16:28.850Z,-1.90
2019-01-03T05:19:17.389Z,-2.00
2019-01-03T05:22:15.628Z,-2.00
2019-01-03T05:25:14.030Z,-1.90
2019-01-03T05:28:07.393Z,-1.90
2019-01-03T05:31:05.731Z,-2.00
2019-01-03T05:33:44.067Z,-1.90
2019-01-03T05:36:51.810Z,-1.90
2019-01-03T05:39:52.957Z,-2.00
2019-01-03T05:42:47.783Z,-2.00
2019-01-03T05:45:34.911Z,-2.00
2019-01-03T05:48:30.238Z,-2.00
2019-01-03T05:51:35.073Z,-2.10
2019-01-03T05:54:25.094Z,-2.10
2019-01-03T05:57:32.602Z,-2.10
2019-01-03T06:00:21.712Z,-2.10
2019-01-03T06:03:03.922Z,-2.10
2019-01-03T06:05:50.648Z,-2.10
2019-01-03T06:08:49.159Z,-2.10
2019-01-03T06:11:45.522Z,-2.10
2019-01-03T06:14:34.093Z,-2.20
2019-01-03T06:17:23.277Z,-2.20
2019-01-03T06:20:18.567Z,-2.10
2019-01-03T06:23:10.459Z,-2.20
2019-01-03T06:26:08.513Z,-2.20
2019-01-03T06:29:00.303Z,-2.20
2019-01-03T06:31:49.446Z,-2.20
2019-01-03T06:34:44.485Z,-2.20
2019-01-03T06:37:27.877Z,-2.20
2019-01-03T06:40:16.987Z,-2.20
2019-01-03T06:43:15.333Z,-2.10
2019-01-03T06:46:16.536Z,-2.00
2019-01-03T06:49:14.995Z,-2.10
2019-01-03T06:52:22.326Z,-2.10
2019-01-03T06:55:10.273Z,-2.20
2019-01-03T06:58:05.775Z,-2.20
2019-01-03T07:01:00.684Z,-2.20
2019-01-03T07:03:48.834Z,-2.10
2019-01-03T07:06:49.983Z,-2.10
2019-01-03T07:09:48.282Z,-2.10
2019-01-03T07:12:49.130Z,-2.20
2019-01-03T07:15:36.987Z,-2.10
2019-01-03T07:18:25.113Z,-2.20
2019-01-03T07:21:10.981Z,-2.10
2019-01-03T07:23:58.877Z,-2.10
2019-01-03T07:26:46.701Z,-2.10
2019-01-03T07:29:34.954Z,-2.10
2019-01-03T07:32:27.022Z,-2.10
2019-01-03T07:35:20.418Z,-2.00
2019-01-03T07:38:15.715Z,-2.00
2019-01-03T07:41:04.862Z,-2.10
2019-01-03T07:43:48.066Z,-2.00
2019-01-03T07:46:36.310Z,-2.00
2019-01-03T07:49:34.749Z,-1.90
2019-01-03T07:52:24.042Z,-1.90
2019-01-03T07:55:25.370Z,-1.80
2019-01-03T07:58:16.666Z,-1.80
2019-01-03T08:01:04.761Z,-1.80
2019-01-03T08:03:54.037Z,-1.80
2019-01-03T08:06:47.336Z,-1.80
2019-01-03T08:09:48.749Z,-1.70
2019-01-03T08:12:53.363Z,-1.70
2019-01-03T08:15:41.261Z,-1.70
2019-01-03T08:18:33.178Z,-1.70
2019-01-03T08:21:28.982Z,-1.60
2019-01-03T08:24:17.010Z,-1.60
2019-01-03T08:27:06.210Z,-1.60
2019-01-03T08:30:01.701Z,-1.50
2019-01-03T08:32:48.061Z,-1.50
2019-01-03T08:35:36.364Z,-1.50
2019-01-03T08:38:28.276Z,-1.40
2019-01-03T08:41:26.513Z,-1.40
2019-01-03T08:44:34.106Z,-1.40
2019-01-03T08:47:35.126Z,-1.40
2019-01-03T08:50:18.204Z,-1.30
2019-01-03T08:53:05.801Z,-1.30
2019-01-03T08:55:53.649Z,-1.30
2019-01-03T08:58:47.606Z,-1.30
2019-01-03T09:01:46.762Z,-1.20
2019-01-03T09:04:35.889Z,-1.20
2019-01-03T09:07:31.035Z,-1.20
2019-01-03T09:10:29.109Z,-1.10
2019-01-03T09:13:26.086Z,-1.10
2019-01-03T09:16:24.773Z,-1.10
2019-01-03T09:19:12.875Z,-1.00
2019-01-03T09:21:56.662Z,-0.90
2019-01-03T09:24:54.982Z,-0.80
2019-01-03T09:27:42.346Z,-0.70
2019-01-03T09:30:31.502Z,-0.60
2019-01-03T09:33:22.497Z,-0.70
2019-01-03T09:36:10.386Z,-0.60
2019-01-03T09:39:05.633Z,-0.60
2019-01-03T09:41:54.986Z,-0.50
2019-01-03T09:44:44.090Z,-0.40
2019-01-03T09:47:14.301Z,-0.40
2019-01-03T09:49:44.516Z,-0.40
2019-01-03T09:52:14.745Z,-0.30
2019-01-03T09:54:44.909Z,-0.20
2019-01-03T09:57:16.164Z,-0.40
2019-01-03T09:59:46.429Z,-0.30
2019-01-03T10:02:16.645Z,-0.20
2019-01-03T10:04:46.838Z,-0.30
2019-01-03T10:07:17.817Z,-0.40
2019-01-03T10:09:47.966Z,-0.30
2019-01-03T10:12:18.160Z,-0.30
2019-01-03T10:14:48.319Z,-0.30
2019-01-03T10:17:18.478Z,-0.20
2019-01-03T10:19:48.894Z,-0.10
2019-01-03T10:22:19.190Z,-0.20
2019-01-03T10:24:49.526Z,-0.10
2019-01-03T10:27:19.710Z,-0.10
2019-01-03T10:29:49.902Z,-0.30
2019-01-03T10:32:20.094Z,-0.20
2019-01-03T10:34:50.230Z,-0.20
2019-01-03T10:37:20.523Z,-0.20
2019-01-03T10:39:50.782Z,-0.10
2019-01-03T10:42:21.916Z,0.00
2019-01-03T10:44:52.132Z,0.00
2019-01-03T10:47:22.293Z,-0.10
2019-01-03T10:49:52.561Z,-0.10
2019-01-03T10:52:22.766Z,0.00
2019-01-03T10:54:53.022Z,0.00
2019-01-03T10:57:23.285Z,0.20
2019-01-03T10:59:53.826Z,0.20
2019-01-03T11:02:24.134Z,0.20
2019-01-03T11:04:54.602Z,0.20
2019-01-03T11:07:24.914Z,0.10
2019-01-03T11:09:55.240Z,-0.10
2019-01-03T11:12:25.382Z,-0.10
2019-01-03T11:14:55.765Z,-0.20
2019-01-03T11:17:26.035Z,-0.20
2019-01-03T11:19:56.321Z,-0.30
2019-01-03T11:22:26.605Z,-0.40
2019-01-03T11:24:56.804Z,-0.40
2019-01-03T11:27:27.062Z,-0.30
2019-01-03T11:29:57.359Z,-0.40
2019-01-03T11:32:27.550Z,-0.30
2019-01-03T11:34:57.784Z,-0.30
2019-01-03T11:37:28.071Z,-0.30
2019-01-03T11:39:58.306Z,-0.30
2019-01-03T11:42:29.482Z,-0.30
2019-01-03T11:44:59.877Z,-0.20
2019-01-03T11:47:30.053Z,-0.20
2019-01-03T11:50:00.466Z,-0.20
2019-01-03T11:52:30.676Z,-0.20
2019-01-03T11:55:00.848Z,-0.30
2019-01-03T11:57:31.160Z,-0.20
2019-01-03T12:00:01.586Z,-0.20
2019-01-03T12:02:31.978Z,-0.20
2019-01-03T12:05:02.241Z,-0.20
2019-01-03T12:07:32.457Z,-0.30
2019-01-03T12:10:02.713Z,-0.20
2019-01-03T12:12:32.899Z,-0.20
2019-01-03T12:15:03.102Z,-0.30
2019-01-03T12:17:33.478Z,-0.40
2019-01-03T12:20:03.874Z,-0.40
2019-01-03T12:22:34.070Z,-0.40
2019-01-03T12:25:04.325Z,-0.40
2019-01-03T12:27:34.500Z,-0.40
2019-01-03T12:30:05.039Z,-0.40
2019-01-03T12:32:35.209Z,-0.40
2019-01-03T12:35:05.670Z,-0.40
2019-01-03T12:37:36.015Z,-0.50
2019-01-03T12:40:06.657Z,-0.50
2019-01-03T12:42:37.792Z,-0.40
2019-01-03T12:45:08.541Z,-0.40
2019-01-03T12:47:38.810Z,-0.40
2019-01-03T12:50:11.131Z,-0.40
2019-01-03T12:52:41.362Z,-0.40
2019-01-03T12:55:11.918Z,-0.50
2019-01-03T12:57:42.151Z,-0.50
2019-01-03T13:00:13.338Z,-0.60
2019-01-03T13:02:43.652Z,-0.60
2019-01-03T13:05:13.933Z,-0.50
2019-01-03T13:07:44.292Z,-0.60
2019-01-03T13:10:14.548Z,-0.60
2019-01-03T13:12:44.688Z,-0.50
2019-01-03T13:15:14.874Z,-0.60
2019-01-03T13:17:45.226Z,-0.60
2019-01-03T13:20:15.434Z,-0.60
2019-01-03T13:22:45.585Z,-0.60
2019-01-03T13:25:15.778Z,-0.60
2019-01-03T13:27:46.028Z,-0.70
2019-01-03T13:30:16.242Z,-0.70
2019-01-03T13:32:46.471Z,-0.70
2019-01-03T13:35:17.061Z,-0.60
2019-01-03T13:37:47.378Z,-0.60
2019-01-03T13:40:17.582Z,-0.70
2019-01-03T13:42:47.980Z,-0.60
2019-01-03T13:45:18.236Z,-0.60
2019-01-03T13:47:48.469Z,-0.70
2019-01-03T13:50:18.710Z,-0.80
2019-01-03T13:52:49.022Z,-0.80
2019-01-03T13:55:19.242Z,-0.90
2019-01-03T13:57:49.491Z,-0.90
2019-01-03T14:00:19.841Z,-1.00
2019-01-03T14:02:50.044Z,-1.00
2019-01-03T14:05:20.266Z,-1.00
2019-01-03T14:07:51.543Z,-1.00
2019-01-03T14:10:21.817Z,-1.10
2019-01-03T14:12:51.974Z,-1.00
2019-01-03T14:15:22.191Z,-1.00
2019-01-03T14:17:52.474Z,-1.10
2019-01-03T14:20:23.007Z,-1.10
2019-01-03T14:22:53.275Z,-1.20
2019-01-03T14:25:23.570Z,-1.20
2019-01-03T14:27:53.798Z,-1.30
2019-01-03T14:30:23.954Z,-1.30
2019-01-03T14:32:54.127Z,-1.30
2019-01-03T14:35:24.357Z,-1.30
2019-01-03T14:37:54.587Z,-1.30
2019-01-03T14:40:24.854Z,-1.40
2019-01-03T14:42:55.107Z,-1.40
2019-01-03T14:45:25.289Z,-1.40
2019-01-03T14:47:55.505Z,-1.50
2019-01-03T14:50:25.801Z,-1.40
2019-01-03T14:52:56.053Z,-1.50
2019-01-03T14:55:26.478Z,-1.50
2019-01-03T14:57:56.708Z,-1.60
2019-01-03T15:00:26.863Z,-1.70
2019-01-03T15:02:57.331Z,-1.60
2019-01-03T15:05:27.533Z,-1.70
2019-01-03T15:07:58.862Z,-1.70
2019-01-03T15:10:29.030Z,-1.70
2019-01-03T15:12:59.205Z,-1.70
2019-01-03T15:15:29.495Z,-1.80
2019-01-03T15:17:59.661Z,-1.80
2019-01-03T15:20:29.945Z,-1.80
2019-01-03T15:23:00.174Z,-1.90
2019-01-03T15:25:30.508Z,-2.00
2019-01-03T15:28:00.846Z,-2.00
2019-01-03T15:30:31.150Z,-2.00
2019-01-03T15:33:01.333Z,-1.90
2019-01-03T15:35:31.651Z,-1.90
2019-01-03T15:38:01.905Z,-2.00
2019-01-03T15:40:32.131Z,-1.90
2019-01-03T15:43:03.341Z,-2.00
2019-01-03T15:45:33.558Z,-1.90
2019-01-03T15:48:03.791Z,-1.90
2019-01-03T15:50:33.969Z,-2.00
2019-01-03T15:53:04.282Z,-2.00
2019-01-03T15:55:34.447Z,-2.10
2019-01-03T15:58:07.629Z,-2.10
2019-01-03T16:00:37.802Z,-2.10
2019-01-03T16:03:10.166Z,-2.10
2019-01-03T16:05:40.322Z,-2.10
2019-01-03T16:08:10.506Z,-2.10
2019-01-03T16:10:40.785Z,-2.00
2019-01-03T16:13:11.165Z,-2.00
2019-01-03T16:15:41.685Z,-2.10
2019-01-03T16:18:11.971Z,-2.10
2019-01-03T16:20:42.295Z,-2.10
2019-01-03T16:23:12.678Z,-2.10
2019-01-03T16:25:43.937Z,-2.10
2019-01-03T16:28:14.123Z,-2.10
2019-01-03T16:30:44.337Z,-2.10
2019-01-03T16:33:14.525Z,-2.10
2019-01-03T16:35:47.948Z,-2.10
2019-01-03T16:38:16.561Z,-2.10
2019-01-03T16:40:46.795Z,-2.20
2019-01-03T16:43:18.102Z,-2.20
2019-01-03T16:45:48.365Z,-2.20
2019-01-03T16:48:18.541Z,-2.20
2019-01-03T16:50:48.749Z,-2.20
2019-01-03T16:53:18.926Z,-2.30
2019-01-03T16:55:49.184Z,-2.20
2019-01-03T16:58:19.425Z,-2.30
2019-01-03T17:00:49.658Z,-2.30
2019-01-03T17:03:19.888Z,-2.30
2019-01-03T17:05:50.084Z,-2.40
2019-01-03T17:08:20.221Z,-2.30
2019-01-03T17:10:50.381Z,-2.30
2019-01-03T17:13:20.578Z,-2.30
2019-01-03T17:15:50.753Z,-2.30
2019-01-03T17:18:21.123Z,-2.40
2019-01-03T17:20:51.370Z,-2.40
2019-01-03T17:23:21.687Z,-2.40
2019-01-03T17:25:51.878Z,-2.40
2019-01-03T17:28:22.446Z,-2.50
2019-01-03T17:30:52.705Z,-2.50
2019-01-03T17:33:24.151Z,-2.40
2019-01-03T17:35:54.729Z,-2.40
2019-01-03T17:38:24.883Z,-2.40
2019-01-03T17:40:55.162Z,-2.30
2019-01-03T17:43:26.185Z,-2.30
2019-01-03T17:45:56.554Z,-2.30
2019-01-03T17:48:26.743Z,-2.20
2019-01-03T17:50:56.904Z,-2.20
2019-01-03T17:53:27.050Z,-2.20
2019-01-03T17:55:57.261Z,-2.20
2019-01-03T17:58:27.826Z,-2.20
2019-01-03T18:00:58.089Z,-2.10
2019-01-03T18:03:28.773Z,-2.10
2019-01-03T18:05:58.972Z,-2.10
2019-01-03T18:08:29.145Z,-2.10
2019-01-03T18:10:59.365Z,-2.10
2019-01-03T18:13:29.517Z,-2.10
2019-01-03T18:15:59.790Z,-2.00
2019-01-03T18:18:29.982Z,-2.10
2019-01-03T18:21:00.215Z,-2.10
2019-01-03T18:23:30.537Z,-2.10
2019-01-03T18:26:00.798Z,-2.10
2019-01-03T18:28:30.963Z,-2.20
2019-01-03T18:31:01.205Z,-2.20
2019-01-03T18:33:31.434Z,-2.20
2019-01-03T18:36:01.742Z,-2.20
2019-01-03T18:38:32.013Z,-2.30
2019-01-03T18:41:02.238Z,-2.30
2019-01-03T18:43:32.582Z,-2.20
2019-01-03T18:46:02.833Z,-2.30
2019-01-03T18:48:32.992Z,-2.30
2019-01-03T18:51:03.257Z,-2.30
2019-01-03T18:53:33.567Z,-2.30
2019-01-03T18:56:03.958Z,-2.30
2019-01-03T18:58:34.502Z,-2.30
2019-01-03T19:01:04.822Z,-2.40
2019-01-03T19:03:35.081Z,-2.40
2019-01-03T19:06:05.322Z,-2.40
2019-01-03T19:08:35.514Z,-2.50
2019-01-03T19:11:06.086Z,-2.40
2019-01-03T19:13:36.345Z,-2.40
2019-01-03T19:16:06.586Z,-2.50
2019-01-03T19:18:36.811Z,-2.50
2019-01-03T19:21:08.794Z,-2.50
2019-01-03T19:23:38.998Z,-2.40
2019-01-03T19:26:12.536Z,-2.50
2019-01-03T19:28:46.187Z,-2.50
2019-01-03T19:31:16.511Z,-2.60
2019-01-03T19:33:46.706Z,-2.50
2019-01-03T19:36:19.693Z,-2.60
2019-01-03T19:38:50.039Z,-2.60
2019-01-03T19:41:20.289Z,-2.70
2019-01-03T19:43:50.525Z,-2.70
2019-01-03T19:46:20.726Z,-2.60
2019-01-03T19:48:52.001Z,-2.70
2019-01-03T19:51:22.189Z,-2.70
2019-01-03T19:53:52.588Z,-2.70
2019-01-03T19:56:22.827Z,-2.70
2019-01-03T19:58:53.065Z,-2.70
2019-01-03T20:01:23.257Z,-2.70
2019-01-03T20:03:53.510Z,-2.70
2019-01-03T20:06:24.043Z,-2.70
2019-01-03T20:08:54.314Z,-2.70
2019-01-03T20:11:24.533Z,-2.70
2019-01-03T20:13:54.722Z,-2.70
2019-01-03T20:16:25.053Z,-2.70
2019-01-03T20:18:55.242Z,-2.70
2019-01-03T20:21:25.473Z,-2.70
2019-01-03T20:23:55.633Z,-2.70
2019-01-03T20:26:25.815Z,-2.70
2019-01-03T20:28:56.127Z,-2.60
2019-01-03T20:31:26.327Z,-2.70
2019-01-03T20:33:56.660Z,-2.70
2019-01-03T20:36:26.922Z,-2.70
2019-01-03T20:38:57.226Z,-2.70
2019-01-03T20:41:27.482Z,-2.70
2019-01-03T20:43:57.922Z,-2.70
2019-01-03T20:46:28.223Z,-2.70
2019-01-03T20:48:58.406Z,-2.70
2019-01-03T20:51:28.700Z,-2.70
2019-01-03T20:53:59.047Z,-2.70
2019-01-03T20:56:29.298Z,-2.70
2019-01-03T20:58:59.654Z,-2.70
2019-01-03T21:01:30.225Z,-2.70
2019-01-03T21:04:01.500Z,-2.70
2019-01-03T21:06:31.975Z,-2.70
2019-01-03T21:09:02.269Z,-2.60
2019-01-03T21:11:34.149Z,-2.70
2019-01-03T21:14:04.520Z,-2.60
2019-01-03T21:16:34.876Z,-2.60
2019-01-03T21:19:05.057Z,-2.60
2019-01-03T21:21:35.341Z,-2.60
2019-01-03T21:24:05.585Z,-2.70
2019-01-03T21:26:36.758Z,-2.60
2019-01-03T21:29:07.739Z,-2.50
2019-01-03T21:31:37.938Z,-2.60
2019-01-03T21:34:09.095Z,-2.60
2019-01-03T21:36:39.257Z,-2.50
2019-01-03T21:39:09.666Z,-2.50
2019-01-03T21:41:39.974Z,-2.50
2019-01-03T21:44:10.381Z,-2.50
2019-01-03T21:46:42.961Z,-2.50
2019-01-03T21:49:13.188Z,-2.40
2019-01-03T21:51:43.538Z,-2.40
2019-01-03T21:54:13.682Z,-2.50
2019-01-03T21:56:44.166Z,-2.50
2019-01-03T21:59:14.331Z,-2.50
2019-01-03T22:01:44.863Z,-2.40
2019-01-03T22:04:15.107Z,-2.40
2019-01-03T22:06:45.324Z,-2.40
2019-01-03T22:09:15.683Z,-2.40
2019-01-03T22:11:45.830Z,-2.40
2019-01-03T22:14:16.105Z,-2.40
2019-01-03T22:16:47.210Z,-2.40
2019-01-03T22:19:17.474Z,-2.40
2019-01-03T22:21:47.782Z,-2.40
2019-01-03T22:24:18.085Z,-2.40
2019-01-03T22:26:48.234Z,-2.40
2019-01-03T22:29:18.467Z,-2.30
2019-01-03T22:31:48.942Z,-2.30
2019-01-03T22:34:19.231Z,-2.30
2019-01-03T22:36:49.414Z,-2.30
2019-01-03T22:39:19.576Z,-2.40
2019-01-03T22:41:49.958Z,-2.30
2019-01-03T22:44:20.128Z,-2.30
2019-01-03T22:46:52.003Z,-2.30
2019-01-03T22:49:22.463Z,-2.30
2019-01-03T22:51:52.610Z,-2.30
2019-01-03T22:54:22.934Z,-2.30
2019-01-03T22:56:53.214Z,-2.40
2019-01-03T22:59:23.526Z,-2.40
2019-01-03T23:01:53.661Z,-2.30
2019-01-03T23:04:23.901Z,-2.40
2019-01-03T23:06:54.187Z,-2.40
2019-01-03T23:09:25.438Z,-2.40
2019-01-03T23:11:55.739Z,-2.50
2019-01-03T23:14:26.058Z,-2.50
2019-01-03T23:16:56.431Z,-2.50
2019-01-03T23:19:28.678Z,-2.40
2019-01-03T23:21:58.990Z,-2.50
2019-01-03T23:24:30.414Z,-2.50
2019-01-03T23:27:01.021Z,-2.50
2019-01-03T23:29:31.471Z,-2.40
2019-01-03T23:32:01.831Z,-2.40
2019-01-03T23:34:32.010Z,-2.40
2019-01-03T23:37:02.210Z,-2.40
2019-01-03T23:39:32.377Z,-2.40
2019-01-03T23:42:02.571Z,-2.30
2019-01-03T23:44:32.878Z,-2.40
2019-01-03T23:47:03.266Z,-2.40
2019-01-03T23:49:33.514Z,-2.30
2019-01-03T23:52:04.087Z,-2.30
2019-01-03T23:54:35.779Z,-2.30
2019-01-03T23:57:06.091Z,-2.30
2019-01-03T23:59:36.947Z,-2.40
